FASG weather

Schweizer Reneke Airport
Schweizer Reneke, North-West, South Africa

Public forecast

Using degrees Celsius for public forecast. Weather courtesy of forecast.io.

METAR (pilot weather report)

Closest report is Mmabatho International Airport, 83.1 nm (154.0 km) N. Retrieved 2019/05/19 16:00 UTC (3 minutes ago):

FAMM 191600Z 04003KT CAVOK 19/03 Q1023 NOSIG

TAF (pilot weather forecast)

Forecast is more than 12 hours old.

Closest forecast is Mmabatho International Airport, 83.1 nm (154.0 km) N. Retrieved 2019/01/01 10:00 UTC (5 months ago):

TAF FAMM 010900Z 0110/0118 04008KT 9999 BKN015 BECMG 0111/0113 34010KT BKN025 TX25/0113Z TN22/0118Z